Time;durP1;ratioP1;P1;durP2;ratioP2;P2;SDS_P1;SDS_P2;PMS_P1;PMS_P2;Temp;Humidity;BMP_temperature;BMP_pressure;BME280_temperature;BME280_humidity;BME280_pressure;Samples;Min_cycle;Max_cycle;Signal;HPM_P1;HPM_P2
2023/07/15 00:01:30;;;;;;;6.75;2.03;;;;;;;-145.68;56.47;73174.00;10418868;28;20228;-63
2023/07/15 00:06:31;;;;;;;2.67;2.03;;;;;;;-145.68;55.76;73148.03;10419065;28;20188;-65
2023/07/15 00:11:34;;;;;;;3.13;2.22;;;;;;;-145.68;56.10;73168.00;10418802;28;20212;-65
2023/07/15 00:16:35;;;;;;;5.93;2.25;;;;;;;-145.68;55.61;73146.03;10400867;28;20195;-65
2023/07/15 00:21:36;;;;;;;7.30;2.50;;;;;;;-145.68;56.41;73156.00;10418466;28;20231;-65
2023/07/15 00:26:37;;;;;;;5.22;2.20;;;;;;;-145.68;56.21;73158.00;10418183;28;20681;-63
2023/07/15 00:31:37;;;;;;;3.15;2.35;;;;;;;-145.68;56.68;73172.00;10418071;28;20709;-63
2023/07/15 00:36:38;;;;;;;3.53;2.08;;;;;;;-145.68;56.54;73158.00;10400215;28;20197;-63
2023/07/15 00:41:40;;;;;;;6.93;2.50;;;;;;;-145.68;56.91;73174.00;10399472;28;20212;-62
2023/07/15 00:47:02;;;;;;;4.05;2.60;;;;;;;-145.68;57.08;73178.00;10400012;28;20196;-63
2023/07/15 00:52:11;;;;;;;5.25;2.40;;;;;;;-145.68;56.88;73162.00;10399646;28;20232;-64
2023/07/15 00:57:15;;;;;;;3.95;2.28;;;;;;;-145.68;56.53;73158.00;10399372;28;20184;-63
2023/07/15 01:02:15;;;;;;;3.97;2.10;;;;;;;-145.68;56.17;73140.03;10398410;28;20200;-63
2023/07/15 01:07:16;;;;;;;5.68;2.28;;;;;;;-145.68;55.74;73120.03;10416841;28;20197;-62
2023/07/15 01:12:16;;;;;;;2.65;1.92;;;;;;;-145.68;55.91;73116.03;10416330;28;20207;-62
2023/07/15 01:17:19;;;;;;;3.13;2.38;;;;;;;-145.68;55.74;73108.06;10416137;28;20190;-63
2023/07/15 01:22:21;;;;;;;4.60;2.20;;;;;;;-145.68;54.61;73076.06;10398526;28;20188;-62
2023/07/15 01:27:21;;;;;;;2.60;1.77;;;;;;;-145.68;54.32;73058.09;10381629;28;20195;-63
2023/07/15 01:32:22;;;;;;;10.40;2.40;;;;;;;-145.68;54.12;73052.09;10398211;28;20279;-63
2023/07/15 01:37:22;;;;;;;2.83;2.10;;;;;;;-145.68;54.01;73052.09;10415263;28;20181;-63
2023/07/15 01:42:24;;;;;;;6.75;2.50;;;;;;;-145.68;54.65;73064.09;10415350;28;20196;-62
2023/07/15 01:47:25;;;;;;;7.63;2.85;;;;;;;-145.68;54.19;73046.09;10415085;28;20238;-64
2023/07/15 01:52:26;;;;;;;5.32;2.40;;;;;;;-145.68;54.31;73042.09;10396993;28;20279;-63
2023/07/15 01:57:30;;;;;;;5.50;2.20;;;;;;;-145.68;53.79;73026.09;10414860;28;20232;-65
2023/07/15 02:02:31;;;;;;;4.55;2.53;;;;;;;-145.68;54.06;73042.09;10396680;28;20569;-63
2023/07/15 02:07:31;;;;;;;7.15;2.40;;;;;;;-145.68;54.28;73034.09;10413932;28;20205;-65
2023/07/15 02:12:34;;;;;;;6.93;2.15;;;;;;;-145.68;54.11;73036.09;10396052;28;20200;-65
2023/07/15 02:17:34;;;;;;;3.85;2.70;;;;;;;-145.68;53.84;73028.09;10413401;28;20674;-65
2023/07/15 02:22:35;;;;;;;3.60;2.35;;;;;;;-145.68;54.11;73038.09;10396070;28;20196;-65
2023/07/15 02:27:35;;;;;;;3.03;2.20;;;;;;;-145.68;54.50;73044.09;10413387;28;20292;-65
2023/07/15 02:32:40;;;;;;;3.28;2.10;;;;;;;-145.68;54.24;73038.09;10413639;28;20185;-65
2023/07/15 02:37:46;;;;;;;3.70;2.30;;;;;;;-145.68;54.07;73030.09;10395344;28;20220;-64
2023/07/15 02:42:47;;;;;;;4.40;2.28;;;;;;;-145.68;54.31;73032.09;10413049;28;20208;-65
2023/07/15 02:47:47;;;;;;;2.15;1.90;;;;;;;-145.68;54.94;73056.09;10412696;28;20235;-64
2023/07/15 02:52:48;;;;;;;4.30;2.30;;;;;;;-145.68;54.79;73054.09;10412472;28;20280;-65
2023/07/15 02:57:49;;;;;;;6.88;2.42;;;;;;;-145.68;54.81;73062.09;10412410;28;20713;-65
2023/07/15 03:02:50;;;;;;;7.57;2.15;;;;;;;-145.68;54.94;73064.09;10394858;28;20215;-65
2023/07/15 03:07:50;;;;;;;5.68;2.50;;;;;;;-145.68;55.53;73082.06;10412092;28;20200;-63
2023/07/15 03:12:51;;;;;;;3.15;2.42;;;;;;;-145.68;55.38;73072.06;10412182;28;20188;-63
2023/07/15 03:17:51;;;;;;;5.45;2.78;;;;;;;-145.68;55.44;73072.06;10411523;28;20215;-64
2023/07/15 03:22:52;;;;;;;4.25;2.30;;;;;;;-145.68;56.01;73088.06;10410988;28;20330;-64
2023/07/15 03:27:52;;;;;;;7.07;2.08;;;;;;;-145.68;56.21;73088.06;10411336;28;20224;-64
2023/07/15 03:32:56;;;;;;;2.97;2.40;;;;;;;-145.68;56.43;73090.06;10411443;28;20263;-64
2023/07/15 03:37:56;;;;;;;4.18;2.35;;;;;;;-145.68;56.33;73072.06;10411271;28;20241;-62
2023/07/15 03:42:57;;;;;;;4.18;2.60;;;;;;;-145.68;56.18;73058.09;10393339;28;20279;-64
2023/07/15 03:47:57;;;;;;;2.53;2.08;;;;;;;-145.68;55.89;73044.09;10411106;28;20228;-64
2023/07/15 03:52:57;;;;;;;4.50;2.45;;;;;;;-145.68;55.20;73022.13;10410845;28;20245;-64
2023/07/15 03:57:58;;;;;;;3.22;2.45;;;;;;;-145.68;55.11;73006.13;10410975;28;20236;-64
2023/07/15 04:03:00;;;;;;;3.78;2.22;;;;;;;-145.68;54.42;72972.16;10410531;28;20204;-64
2023/07/15 04:08:00;;;;;;;4.20;2.47;;;;;;;-145.68;53.90;72952.16;10410574;28;20713;-64
2023/07/15 04:13:00;;;;;;;6.15;2.10;;;;;;;-145.68;53.85;72932.19;10411552;28;20188;-64
2023/07/15 04:18:01;;;;;;;2.80;2.05;;;;;;;-145.68;52.94;72884.22;10410220;28;20235;-63
2023/07/15 04:23:01;;;;;;;3.88;2.38;;;;;;;-145.68;52.39;72838.25;10410680;28;20196;-65
2023/07/15 04:28:02;;;;;;;3.38;2.35;;;;;;;-145.68;52.08;72802.28;10410243;28;20204;-63
2023/07/15 04:33:02;;;;;;;4.60;2.40;;;;;;;-145.68;51.74;72774.31;10410740;28;20666;-64
2023/07/15 04:38:03;;;;;;;4.47;2.28;;;;;;;-145.68;51.05;72734.31;10417244;28;20282;-64
2023/07/15 04:43:04;;;;;;;5.28;2.33;;;;;;;-145.68;50.80;72710.34;10417596;28;20243;-64
2023/07/15 04:48:04;;;;;;;3.20;1.80;;;;;;;-145.68;49.92;72666.38;10434343;22;20305;-67
2023/07/15 04:53:04;;;;;;;6.63;2.25;;;;;;;-145.68;49.72;72630.41;10355285;28;20663;-67
2023/07/15 04:58:05;;;;;;;3.63;2.10;;;;;;;-145.68;49.26;72582.44;10375928;28;20231;-67
2023/07/15 05:03:06;;;;;;;7.72;2.50;;;;;;;-145.68;48.30;72546.47;10375758;28;20200;-68
2023/07/15 05:08:13;;;;;;;6.50;2.30;;;;;;;-145.68;47.79;72512.50;10375662;28;20774;-69
2023/07/15 05:13:14;;;;;;;4.32;2.33;;;;;;;-145.68;47.10;72462.56;10375313;28;20243;-70
2023/07/15 05:18:15;;;;;;;3.95;2.15;;;;;;;-145.68;46.30;72418.59;10374270;28;20270;-70
2023/07/15 05:23:16;;;;;;;7.75;2.13;;;;;;;-145.68;45.81;72368.63;10375327;28;20672;-70
2023/07/15 05:28:16;;;;;;;5.13;1.98;;;;;;;-145.68;45.23;72332.66;10374631;28;20343;-70
2023/07/15 05:33:16;;;;;;;3.22;1.95;;;;;;;-145.68;44.49;72282.72;10374286;28;20197;-70
2023/07/15 05:38:17;;;;;;;2.80;2.00;;;;;;;-145.68;44.32;72256.75;10356780;28;20240;-70
2023/07/15 05:43:19;;;;;;;4.05;2.38;;;;;;;-145.68;44.28;72218.78;10373334;28;20189;-69
2023/07/15 05:48:19;;;;;;;2.88;2.17;;;;;;;-145.68;43.08;72178.81;10371879;28;20225;-69
2023/07/15 05:53:20;;;;;;;2.25;1.83;;;;;;;-145.68;43.05;72144.84;10372515;28;20188;-70
2023/07/15 05:58:20;;;;;;;3.53;2.00;;;;;;;-145.68;43.18;72112.88;10372507;28;20355;-69
2023/07/15 06:03:21;;;;;;;2.70;1.90;;;;;;;-145.68;42.10;72076.91;10373023;28;20631;-69
2023/07/15 06:08:21;;;;;;;6.35;2.00;;;;;;;-145.68;41.65;72044.94;10355447;28;20208;-70
2023/07/15 06:13:21;;;;;;;3.03;2.00;;;;;;;-145.68;41.44;72014.97;10372906;28;20664;-69
2023/07/15 06:18:22;;;;;;;4.90;2.15;;;;;;;-145.68;41.49;71983.00;10372566;28;20316;-70
2023/07/15 06:23:23;;;;;;;10.63;1.92;;;;;;;-145.68;40.93;71947.03;10372687;28;20794;-70
2023/07/15 06:28:23;;;;;;;4.10;2.03;;;;;;;-145.68;39.56;71885.09;10372679;28;20292;-70
2023/07/15 06:33:24;;;;;;;3.45;2.10;;;;;;;-145.68;38.80;71793.19;10371909;28;20193;-70
2023/07/15 06:38:26;;;;;;;4.55;2.15;;;;;;;-145.68;38.74;71727.25;10371788;28;20228;-70
2023/07/15 06:43:26;;;;;;;2.90;1.92;;;;;;;-145.68;37.22;71663.31;10370840;28;20273;-70
2023/07/15 06:48:27;;;;;;;3.95;2.03;;;;;;;-145.68;37.52;71675.31;10369823;28;20651;-70
2023/07/15 06:53:27;;;;;;;2.55;1.75;;;;;;;-145.68;37.49;71653.34;10366476;28;20201;-70
2023/07/15 06:58:27;;;;;;;2.88;2.03;;;;;;;-145.68;36.97;71619.38;10367265;28;20224;-70
2023/07/15 07:03:28;;;;;;;4.90;2.10;;;;;;;-145.68;36.87;71579.41;10366519;28;20197;-69
2023/07/15 07:08:28;;;;;;;2.92;1.67;;;;;;;-145.68;35.46;71515.47;10365656;28;20455;-70
2023/07/15 07:13:29;;;;;;;4.35;1.90;;;;;;;-145.68;35.08;71535.47;10366905;28;20207;-67
2023/07/15 07:18:29;;;;;;;4.35;1.83;;;;;;;-145.68;33.79;71487.50;10370118;28;20217;-70
2023/07/15 07:23:30;;;;;;;2.70;1.80;;;;;;;-145.68;33.48;71401.63;10367394;28;20193;-71
2023/07/15 07:28:43;;;;;;;3.97;1.90;;;;;;;-145.68;32.44;71343.69;10366833;28;20205;-71
2023/07/15 07:33:43;;;;;;;3.20;1.90;;;;;;;-145.68;32.59;71379.63;10366392;28;20193;-69
2023/07/15 07:38:44;;;;;;;2.55;1.88;;;;;;;-145.68;32.86;71449.56;10363592;28;20225;-70
2023/07/15 07:43:44;;;;;;;5.28;1.95;;;;;;;-145.68;32.44;71455.56;10365987;28;20185;-69
2023/07/15 07:48:45;;;;;;;2.30;1.95;;;;;;;-145.68;32.84;71405.59;10366131;28;20400;-69
2023/07/15 07:53:45;;;;;;;7.00;1.90;;;;;;;-145.68;33.41;71435.56;10365555;28;20247;-69
2023/07/15 07:58:45;;;;;;;7.30;1.95;;;;;;;-145.68;33.36;71441.56;10365314;28;20213;-70
2023/07/15 08:03:46;;;;;;;4.07;1.50;;;;;;;-145.68;29.81;71369.66;10364581;28;20203;-70
2023/07/15 08:08:46;;;;;;;2.38;1.75;;;;;;;-145.68;32.44;71417.59;10366298;28;20213;-70
2023/07/15 08:13:46;;;;;;;2.83;1.73;;;;;;;-145.68;31.42;71289.75;10373485;28;20201;-69
2023/07/15 08:18:47;;;;;;;2.92;1.92;;;;;;;-145.68;30.77;71341.69;10373975;28;20217;-69
2023/07/15 08:23:47;;;;;;;3.83;1.83;;;;;;;-145.68;30.20;71321.69;10373573;28;20287;-70
2023/07/15 08:28:48;;;;;;;4.38;1.63;;;;;;;-145.68;30.68;71339.69;10373179;28;20459;-70
2023/07/15 08:33:48;;;;;;;4.15;2.20;;;;;;;-145.68;32.07;71267.75;10371845;28;20576;-69
2023/07/15 08:38:49;;;;;;;6.73;2.20;;;;;;;-145.68;33.47;71361.66;10346527;28;20727;-69
2023/07/15 08:43:49;;;;;;;3.25;2.33;;;;;;;-145.68;32.95;71401.63;10370353;28;20821;-69
2023/07/15 08:48:49;;;;;;;5.47;2.20;;;;;;;-145.68;33.48;71367.66;10371274;28;20233;-69
2023/07/15 08:53:51;;;;;;;5.20;2.20;;;;;;;-145.68;32.79;71351.66;10352998;28;20204;-69
2023/07/15 08:58:53;;;;;;;3.65;1.80;;;;;;;-145.68;32.50;71345.69;10371586;28;20217;-69
2023/07/15 09:03:54;;;;;;;3.88;2.17;;;;;;;-145.68;31.50;71273.75;10371171;28;20185;-69
2023/07/15 09:08:54;;;;;;;3.60;2.30;;;;;;;-145.68;31.92;71283.75;10371272;28;20217;-69
2023/07/15 09:13:55;;;;;;;4.80;2.10;;;;;;;-145.68;31.16;71243.78;10368943;28;20479;-69
2023/07/15 09:18:55;;;;;;;5.23;2.17;;;;;;;-145.68;32.11;71233.81;10369841;28;20279;-69
2023/07/15 09:24:00;;;;;;;6.70;2.65;;;;;;;-145.68;31.61;71263.78;10350460;28;20530;-69
2023/07/15 09:29:00;;;;;;;5.38;2.00;;;;;;;-145.68;31.52;71217.81;10370241;28;20692;-69
2023/07/15 09:34:03;;;;;;;5.13;2.37;;;;;;;-145.68;33.00;71377.63;10370947;28;20201;-69
2023/07/15 09:39:14;;;;;;;3.33;2.00;;;;;;;-145.68;32.22;71281.75;10369834;28;20482;-69
2023/07/15 09:44:14;;;;;;;5.18;4.63;;;;;;;-145.68;31.68;71261.78;10366899;28;20247;-69
2023/07/15 09:49:15;;;;;;;6.63;2.28;;;;;;;-145.68;32.79;71307.72;10368876;28;20295;-69
2023/07/15 09:54:15;;;;;;;3.88;2.60;;;;;;;-145.68;32.85;71309.72;10369428;28;20567;-69
2023/07/15 09:59:21;;;;;;;7.55;2.50;;;;;;;-145.68;32.36;71215.81;10369373;28;20225;-68
2023/07/15 10:04:32;;;;;;;5.18;2.75;;;;;;;-145.68;33.00;71239.81;10369840;28;20197;-68
2023/07/15 10:09:32;;;;;;;6.13;2.72;;;;;;;-145.68;32.85;71153.91;10369629;28;20267;-69
2023/07/15 10:14:33;;;;;;;5.43;2.15;;;;;;;-145.68;31.46;71159.91;10369371;28;20236;-68
2023/07/15 10:19:37;;;;;;;3.13;1.80;;;;;;;-145.68;31.74;71157.91;10367659;28;20711;-69
2023/07/15 10:24:54;;;;;;;3.13;2.30;;;;;;;-145.68;32.35;71181.88;10371689;28;20193;-68
2023/07/15 10:30:17;;;;;;;4.53;2.20;;;;;;;-145.68;32.25;71211.84;10372406;28;20699;-68
2023/07/15 10:35:19;;;;;;;6.72;2.00;;;;;;;-145.68;32.16;71201.84;10371906;28;20212;-68
2023/07/15 10:40:48;;;;;;;7.20;2.03;;;;;;;-145.68;31.63;71107.94;10371941;28;20217;-68
2023/07/15 10:45:54;;;;;;;4.47;2.35;;;;;;;-145.68;32.12;71131.94;10369408;28;20594;-68
2023/07/15 10:50:57;;;;;;;4.57;2.53;;;;;;;-145.68;31.22;71125.94;10421776;22;20235;-63
2023/07/15 10:56:02;;;;;;;6.13;2.67;;;;;;;-145.68;31.94;71181.88;10409786;28;20789;-62
2023/07/15 11:01:07;;;;;;;5.38;2.17;;;;;;;-145.68;31.54;71171.88;10393384;28;20301;-64
2023/07/15 11:06:07;;;;;;;3.55;2.40;;;;;;;-145.68;31.70;71177.88;10374057;28;20272;-64
2023/07/15 11:11:12;;;;;;;4.38;2.30;;;;;;;-145.68;31.57;71125.94;10371302;28;20284;-64
2023/07/15 11:16:14;;;;;;;5.72;2.05;;;;;;;-145.68;31.75;71119.94;10371069;28;20217;-63
2023/07/15 11:21:14;;;;;;;3.70;2.25;;;;;;;-145.68;31.82;71151.91;10370696;28;20272;-64
2023/07/15 11:26:15;;;;;;;7.53;1.50;;;;;;;-145.68;31.64;71161.88;10374196;28;20181;-64
2023/07/15 11:31:15;;;;;;;6.90;2.78;;;;;;;-145.68;31.96;71137.91;10400626;28;20212;-64
2023/07/15 11:36:16;;;;;;;4.20;2.03;;;;;;;-145.68;31.92;71107.94;10411440;28;20200;-64
2023/07/15 11:41:16;;;;;;;5.03;2.22;;;;;;;-145.68;31.76;71010.06;10410931;28;20664;-64
2023/07/15 11:46:17;;;;;;;3.40;2.10;;;;;;;-145.68;31.06;70940.16;10410292;28;20654;-63
2023/07/15 11:51:20;;;;;;;4.93;2.38;;;;;;;-145.68;30.97;70910.19;10393227;28;20239;-64
2023/07/15 11:56:34;;;;;;;4.57;1.95;;;;;;;-145.68;30.50;70900.22;10410825;28;20193;-64
2023/07/15 12:01:36;;;;;;;2.95;1.60;;;;;;;-145.68;30.80;70958.13;10410629;28;20220;-63
2023/07/15 12:06:45;;;;;;;4.45;1.88;;;;;;;-145.68;30.40;70964.13;10410783;28;20537;-64
2023/07/15 12:11:46;;;;;;;4.68;2.10;;;;;;;-145.68;31.38;70970.13;10392098;28;20722;-64
2023/07/15 12:16:47;;;;;;;3.77;2.03;;;;;;;-145.68;30.82;70910.19;10390194;28;20184;-64
2023/07/15 12:21:48;;;;;;;3.03;2.00;;;;;;;-145.68;30.69;70924.19;10387906;28;20538;-64
2023/07/15 12:26:48;;;;;;;2.47;1.70;;;;;;;-145.68;30.65;70884.22;10390368;28;20197;-63
2023/07/15 12:31:48;;;;;;;3.75;2.10;;;;;;;-145.68;30.19;70862.25;10387637;28;20224;-64
2023/07/15 12:36:49;;;;;;;3.67;2.00;;;;;;;-145.68;30.34;70886.22;10389954;28;20192;-63
2023/07/15 12:41:49;;;;;;;2.00;1.80;;;;;;;-145.68;31.03;70954.16;10387233;28;20484;-62
2023/07/15 12:46:49;;;;;;;4.73;2.40;;;;;;;-145.68;30.54;70818.31;10398695;28;20200;-64
2023/07/15 12:51:50;;;;;;;3.53;2.10;;;;;;;-145.68;30.31;70924.19;10409516;28;20482;-63
2023/07/15 12:56:50;;;;;;;2.63;2.00;;;;;;;-145.68;28.93;70736.41;10414737;28;20449;-64
2023/07/15 13:01:51;;;;;;;2.38;1.60;;;;;;;-145.68;28.31;70676.50;10416677;28;20478;-65
2023/07/15 13:06:52;;;;;;;2.90;1.83;;;;;;;-145.68;29.24;70756.41;10417036;28;20208;-65
2023/07/15 13:11:52;;;;;;;3.78;1.73;;;;;;;-145.68;28.78;70678.50;10416463;28;20247;-65
2023/07/15 13:16:52;;;;;;;2.57;2.07;;;;;;;-145.68;28.65;70712.44;10416440;28;20199;-65
2023/07/15 13:21:53;;;;;;;4.67;1.60;;;;;;;-145.68;28.57;70662.50;10393824;28;20479;-65
2023/07/15 13:26:53;;;;;;;8.52;1.98;;;;;;;-145.68;28.03;70536.69;10374994;28;20814;-65
2023/07/15 13:31:53;;;;;;;3.70;1.63;;;;;;;-145.68;27.90;70610.59;10374735;28;20295;-65
2023/07/15 13:36:54;;;;;;;2.07;1.73;;;;;;;-145.68;28.49;70568.63;10374437;28;20442;-65
2023/07/15 13:41:54;;;;;;;2.90;1.87;;;;;;;-145.68;28.85;70734.41;10392905;28;20471;-65
2023/07/15 13:46:55;;;;;;;2.10;1.87;;;;;;;-145.68;27.78;70560.66;10382836;28;20451;-65
2023/07/15 13:51:56;;;;;;;5.90;2.03;;;;;;;-145.68;28.14;70658.53;10380700;28;20471;-65
2023/07/15 13:56:56;;;;;;;3.42;1.90;;;;;;;-145.68;28.44;70708.47;10388868;28;20450;-65
2023/07/15 14:01:56;;;;;;;2.03;1.83;;;;;;;-145.68;29.00;70700.47;10391861;28;20220;-63
2023/07/15 14:06:57;;;;;;;6.68;2.10;;;;;;;-145.68;27.65;70562.66;10392046;28;20459;-63
2023/07/15 14:11:57;;;;;;;3.05;1.83;;;;;;;-145.68;27.39;70436.81;10391147;28;20214;-66
2023/07/15 14:16:58;;;;;;;3.65;2.10;;;;;;;-145.68;27.88;70518.72;10393017;28;20193;-65
2023/07/15 14:21:58;;;;;;;2.30;2.00;;;;;;;-145.68;27.47;70496.75;10399020;28;20297;-64
2023/07/15 14:26:59;;;;;;;3.03;2.28;;;;;;;-145.68;27.61;70592.59;10402433;28;20196;-64
2023/07/15 14:32:00;;;;;;;4.32;2.05;;;;;;;-145.68;27.20;70554.66;10406743;28;20203;-64
2023/07/15 14:37:00;;;;;;;4.37;2.07;;;;;;;-145.68;27.73;70620.56;10412763;28;20199;-64
2023/07/15 14:42:00;;;;;;;4.65;2.10;;;;;;;-145.68;27.65;70582.63;10375008;28;21064;-64
2023/07/15 14:47:01;;;;;;;4.43;1.93;;;;;;;-145.68;26.88;70434.81;10384011;28;20188;-64
2023/07/15 14:52:01;;;;;;;3.67;1.90;;;;;;;-145.68;26.24;70388.88;10412723;28;20466;-65
2023/07/15 14:57:02;;;;;;;2.03;1.65;;;;;;;-145.68;26.28;70360.91;10412447;28;20441;-64
2023/07/15 15:02:02;;;;;;;2.38;1.95;;;;;;;-145.68;26.05;70324.97;10412351;28;20220;-65
2023/07/15 15:07:03;;;;;;;2.72;1.90;;;;;;;-145.68;26.38;70404.88;10412646;28;20227;-65
2023/07/15 15:12:04;;;;;;;4.78;1.67;;;;;;;-145.68;26.75;70404.88;10412324;28;20211;-64
2023/07/15 15:17:05;;;;;;;2.70;1.80;;;;;;;-145.68;26.03;70318.97;10412255;28;20187;-65
2023/07/15 15:22:05;;;;;;;10.70;1.60;;;;;;;-145.68;26.55;70350.94;10402463;28;20223;-65
2023/07/15 15:27:05;;;;;;;2.50;1.58;;;;;;;-145.68;25.18;70115.28;10405969;28;20191;-65
2023/07/15 15:32:06;;;;;;;2.35;1.60;;;;;;;-145.68;25.27;70175.19;10411478;28;20204;-66
2023/07/15 15:37:07;;;;;;;8.80;1.90;;;;;;;-145.68;25.79;70330.97;10411686;28;20666;-64
2023/07/15 15:42:07;;;;;;;2.80;1.48;;;;;;;-145.68;25.74;70326.97;10410805;28;20231;-65
2023/07/15 15:47:07;;;;;;;2.33;1.65;;;;;;;-145.68;26.40;70442.81;10410698;28;20651;-64
2023/07/15 15:52:08;;;;;;;4.20;1.73;;;;;;;-145.68;26.72;70450.81;10410381;28;20228;-65
2023/07/15 15:57:08;;;;;;;2.33;1.70;;;;;;;-145.68;26.39;70418.84;10395796;28;20643;-65
2023/07/15 16:02:09;;;;;;;2.72;1.65;;;;;;;-145.68;25.74;70305.00;10372637;28;20476;-65
2023/07/15 16:07:09;;;;;;;3.80;1.48;;;;;;;-145.68;26.05;70378.91;10404754;28;20614;-65
2023/07/15 16:12:09;;;;;;;1.83;1.57;;;;;;;-145.68;26.59;70448.81;10411057;28;20215;-64
2023/07/15 16:17:10;;;;;;;4.27;1.87;;;;;;;-145.68;27.94;70650.53;10410517;28;20439;-65
2023/07/15 16:22:10;;;;;;;5.00;1.67;;;;;;;-145.68;27.78;70622.56;10410402;28;20822;-64
2023/07/15 16:27:10;;;;;;;3.90;1.70;;;;;;;-145.68;28.51;70736.41;10410405;28;20806;-65
2023/07/15 16:32:11;;;;;;;2.07;1.80;;;;;;;-145.68;28.85;70780.38;10415835;28;20450;-64
2023/07/15 16:37:12;;;;;;;1.95;1.60;;;;;;;-145.68;28.78;70720.44;10418396;28;20530;-65
2023/07/15 16:42:12;;;;;;;1.70;1.60;;;;;;;-145.68;28.51;70678.50;10417736;28;20228;-64
2023/07/15 16:47:13;;;;;;;2.70;1.70;;;;;;;-145.68;28.40;70676.50;10417953;28;20605;-65
2023/07/15 16:52:13;;;;;;;3.72;2.20;;;;;;;-145.68;28.79;70694.47;10464613;23;20718;-67
2023/07/15 16:57:14;;;;;;;6.43;2.80;;;;;;;-145.68;28.85;70746.41;10441335;28;20218;-67
2023/07/15 17:02:14;;;;;;;4.53;2.00;;;;;;;-145.68;29.54;70784.34;10458926;28;20289;-67
2023/07/15 17:07:14;;;;;;;2.97;1.60;;;;;;;-145.68;29.13;70778.38;10462033;28;20438;-66
2023/07/15 17:12:15;;;;;;;2.83;1.60;;;;;;;-145.68;28.86;70778.38;10481745;28;20450;-67
2023/07/15 17:17:15;;;;;;;3.20;1.60;;;;;;;-145.68;29.62;70796.34;10467456;28;20947;-67
2023/07/15 17:22:18;;;;;;;1.90;1.50;;;;;;;-145.68;29.45;70820.31;10464373;28;20219;-67
2023/07/15 17:27:18;;;;;;;2.67;1.60;;;;;;;-145.68;29.32;70806.31;10460744;28;20422;-67
2023/07/15 17:32:19;;;;;;;3.67;1.58;;;;;;;-145.68;29.34;70822.31;10440076;28;20212;-67
2023/07/15 17:37:20;;;;;;;1.60;1.50;;;;;;;-145.68;29.82;70804.34;10457758;28;20192;-67
2023/07/15 17:42:20;;;;;;;1.85;1.17;;;;;;;-145.68;29.74;70808.31;10455933;28;21008;-67
2023/07/15 17:47:20;;;;;;;1.50;1.33;;;;;;;-145.68;29.78;70840.28;10457497;28;20195;-67
2023/07/15 17:52:21;;;;;;;1.60;1.50;;;;;;;-145.68;29.92;70868.25;10456664;28;20516;-67
2023/07/15 17:57:21;;;;;;;3.58;1.60;;;;;;;-145.68;29.86;70842.28;10457211;28;20434;-67
2023/07/15 18:02:22;;;;;;;3.17;1.30;;;;;;;-145.68;29.79;70864.25;10456497;28;20219;-67
2023/07/15 18:07:22;;;;;;;1.67;1.48;;;;;;;-145.68;30.09;70874.25;10456611;28;20438;-67
2023/07/15 18:12:25;;;;;;;1.85;1.48;;;;;;;-145.68;30.98;70896.22;10455876;28;20259;-67
2023/07/15 18:17:25;;;;;;;2.08;1.40;;;;;;;-145.68;30.71;70928.19;10455931;28;20191;-67
2023/07/15 18:22:26;;;;;;;1.70;1.60;;;;;;;-145.68;30.71;70940.16;10455699;28;20228;-67
2023/07/15 18:27:26;;;;;;;2.03;1.73;;;;;;;-145.68;31.02;70954.16;10455493;28;20195;-67
2023/07/15 18:32:26;;;;;;;2.27;1.70;;;;;;;-145.68;32.42;71030.06;10455328;28;20480;-67
2023/07/15 18:37:27;;;;;;;1.63;1.53;;;;;;;-145.68;33.68;71081.97;10455134;28;20453;-67
2023/07/15 18:42:27;;;;;;;1.90;1.60;;;;;;;-145.68;33.70;71169.88;10454731;28;20484;-67
2023/07/15 18:47:28;;;;;;;2.83;1.92;;;;;;;-145.68;36.31;71281.75;10454537;28;20682;-67
2023/07/15 18:52:28;;;;;;;2.15;1.80;;;;;;;-145.68;36.85;71331.69;10453725;28;20279;-67
2023/07/15 18:57:28;;;;;;;3.97;1.93;;;;;;;-145.68;38.12;71419.59;10454272;28;20329;-67
2023/07/15 19:02:29;;;;;;;3.53;1.97;;;;;;;-145.68;38.03;71435.56;10453520;28;20482;-68
2023/07/15 19:07:30;;;;;;;2.00;1.80;;;;;;;-145.68;38.11;71453.56;10453968;28;20434;-68
2023/07/15 19:12:30;;;;;;;2.88;1.73;;;;;;;-145.68;39.03;71491.50;10453402;28;20306;-69
2023/07/15 19:17:31;;;;;;;2.30;2.10;;;;;;;-145.68;39.66;71527.47;10453476;28;20184;-68
2023/07/15 19:22:31;;;;;;;3.55;1.90;;;;;;;-145.68;39.94;71557.44;10453054;28;20228;-68
2023/07/15 19:27:31;;;;;;;2.80;2.08;;;;;;;-145.68;41.49;71637.34;10453172;28;20195;-68
2023/07/15 19:32:32;;;;;;;2.13;1.92;;;;;;;-145.68;41.44;71669.31;10452875;28;20295;-67
2023/07/15 19:37:33;;;;;;;4.50;1.90;;;;;;;-145.68;41.59;71677.31;10452693;28;20218;-67
2023/07/15 19:42:34;;;;;;;3.80;2.20;;;;;;;-145.68;41.74;71725.25;10452673;28;20226;-67
2023/07/15 19:47:34;;;;;;;2.40;2.20;;;;;;;-145.68;42.04;71733.25;10452567;28;20687;-67
2023/07/15 19:52:35;;;;;;;2.60;1.70;;;;;;;-145.68;41.82;71737.25;10452464;28;20236;-67
2023/07/15 19:57:35;;;;;;;2.38;2.17;;;;;;;-145.68;42.19;71757.22;10452324;28;20697;-66
2023/07/15 20:02:35;;;;;;;3.85;2.10;;;;;;;-145.68;41.95;71749.22;10452315;28;20215;-67
2023/07/15 20:07:36;;;;;;;2.50;2.22;;;;;;;-145.68;42.49;71767.22;10459156;28;20198;-67
2023/07/15 20:12:37;;;;;;;4.72;2.45;;;;;;;-145.68;42.76;71779.19;10460429;28;20751;-67
2023/07/15 20:17:37;;;;;;;2.97;2.00;;;;;;;-145.68;42.82;71789.19;10460590;28;20187;-67
2023/07/15 20:22:37;;;;;;;3.42;2.50;;;;;;;-145.68;43.00;71799.19;10459977;28;20292;-67
2023/07/15 20:27:38;;;;;;;5.15;2.50;;;;;;;-145.68;43.29;71809.16;10460190;28;20188;-67
2023/07/15 20:32:38;;;;;;;2.78;2.33;;;;;;;-145.68;43.40;71833.16;10459624;28;20207;-67
2023/07/15 20:37:39;;;;;;;2.65;2.45;;;;;;;-145.68;43.31;71877.09;10459830;28;20199;-67
2023/07/15 20:42:39;;;;;;;16.55;2.80;;;;;;;-145.68;41.43;71807.19;10459266;28;20738;-68
2023/07/15 20:47:43;;;;;;;10.63;2.75;;;;;;;-145.68;42.58;71831.16;10459306;28;20196;-67
2023/07/15 20:52:44;;;;;;;9.57;3.33;;;;;;;-145.68;43.67;71873.09;10459098;28;20235;-68
2023/07/15 20:57:44;;;;;;;9.18;2.92;;;;;;;-145.68;44.91;71913.06;10458853;28;20199;-68
2023/07/15 21:02:44;;;;;;;8.85;3.00;;;;;;;-145.68;46.05;71971.00;10458574;28;20224;-68
2023/07/15 21:07:45;;;;;;;10.85;2.78;;;;;;;-145.68;47.29;72012.97;10458330;28;20211;-68
2023/07/15 21:12:45;;;;;;;10.13;2.90;;;;;;;-145.68;48.69;72062.91;10458195;28;20582;-67
2023/07/15 21:17:46;;;;;;;9.93;3.30;;;;;;;-145.68;50.21;72110.88;10458042;28;20633;-67
2023/07/15 21:22:46;;;;;;;4.43;2.78;;;;;;;-145.68;51.37;72136.84;10457630;28;20220;-67
2023/07/15 21:27:46;;;;;;;11.85;2.95;;;;;;;-145.68;52.24;72170.81;10457874;28;20196;-67
2023/07/15 21:32:47;;;;;;;9.32;2.70;;;;;;;-145.68;52.31;72140.84;10457329;28;20796;-67
2023/07/15 21:37:47;;;;;;;4.68;2.75;;;;;;;-145.68;52.54;72142.84;10457447;28;20685;-68
2023/07/15 21:42:47;;;;;;;5.03;2.78;;;;;;;-145.68;53.20;72152.84;10456839;28;20220;-68
2023/07/15 21:47:48;;;;;;;7.72;2.80;;;;;;;-145.68;53.31;72148.84;10457080;28;20196;-67
2023/07/15 21:52:48;;;;;;;5.95;2.83;;;;;;;-145.68;53.51;72148.84;10456696;28;20239;-68
2023/07/15 21:57:48;;;;;;;4.93;2.70;;;;;;;-145.68;54.09;72154.84;10456765;28;20199;-68
2023/07/15 22:02:49;;;;;;;4.45;3.30;;;;;;;-145.68;54.51;72160.81;10456258;28;20307;-68
2023/07/15 22:07:49;;;;;;;6.88;3.28;;;;;;;-145.68;55.51;72176.81;10455981;28;20211;-68
2023/07/15 22:12:50;;;;;;;4.78;2.83;;;;;;;-145.68;55.17;72170.81;10456002;28;20708;-67
2023/07/15 22:17:50;;;;;;;6.55;3.38;;;;;;;-145.68;56.48;72212.78;10455682;28;20253;-67
2023/07/15 22:22:51;;;;;;;6.18;3.13;;;;;;;-145.68;56.91;72210.78;10455394;28;20255;-67
2023/07/15 22:27:51;;;;;;;9.75;3.30;;;;;;;-145.68;57.18;72216.78;10454696;28;20196;-67
2023/07/15 22:32:51;;;;;;;5.18;3.15;;;;;;;-145.68;58.02;72228.75;10454945;28;20220;-67
2023/07/15 22:37:52;;;;;;;8.57;3.72;;;;;;;-145.68;58.81;72246.75;10454974;28;20191;-67
2023/07/15 22:42:52;;;;;;;11.02;3.20;;;;;;;-145.68;59.26;72242.75;10454484;28;20674;-67
2023/07/15 22:47:52;;;;;;;5.20;3.08;;;;;;;-145.68;60.97;72290.72;10454741;28;20196;-67